Val-David, Canada
Current Conditions -  °F | °C
As of 10:00 PM on Monday 20 Oct 2014 (Local Time) from CYMX Reporting Station
Broken Clouds Broken Clouds  
Wind Chill: 41°   Ceiling: 4000
Heat Index: 41°   Visibility: 25mi
Dew Point: 32°   Wind: 3mph
Humidity: 70%   Direction: 50°NE
Pressure: 29.95"   Gusts: NA
Location:  46.03°N, 74.2°W
Report Text: CYMX 210200Z 05003KT 360V070 25SM BKN040 05/00 A2995 RMK SC7 SLP146
Loading
Personal Weather Stations






























Interactive Weather Map
Tropical Storm Tracking
New forecast layout! Learn more

10-Day Weather Forecast

Advertisements
Track Severe Weather on mobile